Drain, Oregon
Current Conditions -  °F | °C
As of 6:53 PM on Wednesday 22 Oct 2014 (Local Time) from KRBG Reporting Station
Light Rain Light Rain  
Wind Chill: 60°   Ceiling: 9500
Heat Index: 60°   Visibility: 6mi
Dew Point: 56°   Wind: 7mph
Humidity: 86%   Direction: 170°S
Pressure: 29.78"   Gusts: NA
Location:  43.66°N, 123.32°W
Report Text: KRBG 230153Z AUTO 17006KT 6SM -RA BR SCT070 OVC095 16/13 A2978 RMK AO2 SLP084 P0007 T01560133
Loading
Personal Weather Stations






























Interactive Weather Map
Tropical Storm Tracking
New forecast layout! Learn more

10-Day Weather Forecast

Advertisements
Track Severe Weather on mobile